GJS4510 KCHA-KEWR
Flight info
| Callsign | GJS4510 |
|---|---|
| Flight time | 1h 38m |
| Altitude | 35000 |
| Route | MURKY KIDDO UMBRE QUART PHLBO4 |
| Aircraft | CRJ7/M-SDFGIRWY/S |
Departure
| Time | 2026-05-08 19:10 |
|---|---|
| Airport | Chattanooga Metropolitan Airport (Lovell Field) (KCHA) |
Arrival
| Time | 2026-05-08 20:49 |
|---|---|
| Airport | Newark Liberty International Airport (KEWR) |
| Time | Latitude | Longitude | Altitude | Speed | Heading |
|---|---|---|---|---|---|
| 2026-05-08 18:44 | 35.03728 | -85.19843 | 689 ft | 0 kts | 64° |
| 2026-05-08 19:01 | 35.03722 | -85.19860 | 689 ft | 2 kts | 64° |
| 2026-05-08 19:02 | 35.03715 | -85.19878 | 685 ft | 2 kts | 64° |
| 2026-05-08 19:02 | 35.03708 | -85.19896 | 686 ft | 2 kts | 64° |
| 2026-05-08 19:02 | 35.03700 | -85.19914 | 687 ft | 2 kts | 64° |
| 2026-05-08 19:02 | 35.03698 | -85.19920 | 689 ft | 0 kts | 64° |
| 2026-05-08 19:05 | 35.03698 | -85.19919 | 689 ft | 0 kts | 62° |
| 2026-05-08 19:05 | 35.03699 | -85.19919 | 688 ft | 0 kts | 44° |
| 2026-05-08 19:06 | 35.03701 | -85.19919 | 688 ft | 0 kts | 2° |
| 2026-05-08 19:06 | 35.03702 | -85.19920 | 687 ft | 0 kts | 318° |
| 2026-05-08 19:06 | 35.03704 | -85.19922 | 687 ft | 1 kts | 316° |
| 2026-05-08 19:06 | 35.03733 | -85.19942 | 685 ft | 7 kts | 351° |
| 2026-05-08 19:07 | 35.03786 | -85.19934 | 687 ft | 8 kts | 17° |
| 2026-05-08 19:07 | 35.03846 | -85.19912 | 687 ft | 10 kts | 17° |
| 2026-05-08 19:07 | 35.03908 | -85.19889 | 689 ft | 9 kts | 17° |
| 2026-05-08 19:07 | 35.03968 | -85.19868 | 689 ft | 9 kts | 15° |
| 2026-05-08 19:08 | 35.04024 | -85.19860 | 683 ft | 9 kts | 349° |
| 2026-05-08 19:08 | 35.04083 | -85.19895 | 686 ft | 10 kts | 330° |
| 2026-05-08 19:08 | 35.04144 | -85.19939 | 685 ft | 10 kts | 327° |
| 2026-05-08 19:08 | 35.04190 | -85.20001 | 690 ft | 8 kts | 289° |
| 2026-05-08 19:09 | 35.04180 | -85.20049 | 686 ft | 4 kts | 221° |
| 2026-05-08 19:09 | 35.04163 | -85.20059 | 692 ft | 1 kts | 197° |
| 2026-05-08 19:09 | 35.04138 | -85.20069 | 689 ft | 16 kts | 197° |
| 2026-05-08 19:09 | 35.03756 | -85.20208 | 685 ft | 100 kts | 197° |
| 2026-05-08 19:10 | 35.02880 | -85.20527 | 818 ft | 152 kts | 196° |
| 2026-05-08 19:10 | 35.01839 | -85.20880 | 1639 ft | 159 kts | 194° |
| 2026-05-08 19:10 | 35.00772 | -85.21225 | 2594 ft | 163 kts | 193° |
| 2026-05-08 19:10 | 34.99557 | -85.21580 | 3139 ft | 199 kts | 193° |
| 2026-05-08 19:11 | 34.98133 | -85.21731 | 3981 ft | 216 kts | 173° |
| 2026-05-08 19:11 | 34.96744 | -85.21053 | 5066 ft | 219 kts | 145° |
| 2026-05-08 19:11 | 34.95831 | -85.19617 | 5974 ft | 220 kts | 110° |
| 2026-05-08 19:11 | 34.95653 | -85.17770 | 6703 ft | 225 kts | 88° |
| 2026-05-08 19:12 | 34.95725 | -85.15780 | 7242 ft | 242 kts | 85° |
| 2026-05-08 19:12 | 34.95904 | -85.13685 | 7793 ft | 257 kts | 81° |
| 2026-05-08 19:12 | 34.96190 | -85.11471 | 8324 ft | 273 kts | 79° |
| 2026-05-08 19:12 | 34.96528 | -85.09119 | 8834 ft | 289 kts | 79° |
| 2026-05-08 19:13 | 34.96852 | -85.06649 | 9367 ft | 305 kts | 80° |
| 2026-05-08 19:13 | 34.97160 | -85.04043 | 10052 ft | 313 kts | 81° |
| 2026-05-08 19:13 | 34.97467 | -85.01379 | 10658 ft | 323 kts | 81° |
| 2026-05-08 19:13 | 34.97790 | -84.98617 | 11085 ft | 340 kts | 81° |
| 2026-05-08 19:14 | 34.98129 | -84.95689 | 11473 ft | 357 kts | 81° |
| 2026-05-08 19:14 | 34.98488 | -84.92593 | 11846 ft | 374 kts | 81° |
| 2026-05-08 19:14 | 34.98850 | -84.89459 | 12483 ft | 381 kts | 81° |
| 2026-05-08 19:14 | 34.99227 | -84.86210 | 13178 ft | 387 kts | 81° |
| 2026-05-08 19:15 | 34.99606 | -84.82933 | 13851 ft | 393 kts | 81° |
| 2026-05-08 19:15 | 34.99986 | -84.79630 | 14462 ft | 399 kts | 81° |
| 2026-05-08 19:15 | 35.00374 | -84.76242 | 15080 ft | 404 kts | 81° |
| 2026-05-08 19:15 | 35.00760 | -84.72853 | 15677 ft | 410 kts | 81° |
| 2026-05-08 19:16 | 35.01159 | -84.69377 | 16271 ft | 415 kts | 81° |
| 2026-05-08 19:16 | 35.01560 | -84.65904 | 16811 ft | 421 kts | 81° |
| 2026-05-08 19:16 | 35.01970 | -84.62325 | 17370 ft | 426 kts | 81° |
| 2026-05-08 19:16 | 35.02379 | -84.58721 | 17916 ft | 431 kts | 81° |
| 2026-05-08 19:17 | 35.02789 | -84.55097 | 18461 ft | 435 kts | 81° |
| 2026-05-08 19:17 | 35.03205 | -84.51415 | 18936 ft | 441 kts | 81° |
| 2026-05-08 19:17 | 35.03617 | -84.47684 | 19367 ft | 444 kts | 81° |
| 2026-05-08 19:17 | 35.04034 | -84.44011 | 20114 ft | 442 kts | 80° |
| 2026-05-08 19:18 | 35.04453 | -84.40284 | 20950 ft | 442 kts | 81° |
| 2026-05-08 19:18 | 35.04868 | -84.36571 | 21804 ft | 440 kts | 81° |
| 2026-05-08 19:18 | 35.05280 | -84.32875 | 22591 ft | 441 kts | 81° |
| 2026-05-08 19:18 | 35.05690 | -84.29156 | 22956 ft | 453 kts | 81° |
| 2026-05-08 19:19 | 35.06115 | -84.25305 | 23434 ft | 459 kts | 81° |
| 2026-05-08 19:19 | 35.06544 | -84.21385 | 23883 ft | 466 kts | 81° |
| 2026-05-08 19:19 | 35.06975 | -84.17486 | 24307 ft | 471 kts | 81° |
| 2026-05-08 19:19 | 35.07411 | -84.13482 | 24750 ft | 476 kts | 81° |
| 2026-05-08 19:20 | 35.07851 | -84.09485 | 25195 ft | 481 kts | 81° |
| 2026-05-08 19:20 | 35.07999 | -84.08112 | 25348 ft | 482 kts | 81° |
| 2026-05-08 19:20 | 35.08738 | -84.01304 | 26108 ft | 488 kts | 81° |
| 2026-05-08 19:20 | 35.09186 | -83.97177 | 26564 ft | 491 kts | 81° |
| 2026-05-08 19:21 | 35.09628 | -83.93087 | 27028 ft | 493 kts | 81° |
| 2026-05-08 19:21 | 35.10078 | -83.88897 | 27524 ft | 495 kts | 81° |
| 2026-05-08 19:21 | 35.10523 | -83.84744 | 27984 ft | 496 kts | 81° |
| 2026-05-08 19:21 | 35.10965 | -83.80550 | 28488 ft | 496 kts | 81° |
| 2026-05-08 19:22 | 35.11413 | -83.76369 | 29033 ft | 496 kts | 80° |
| 2026-05-08 19:22 | 35.11859 | -83.72178 | 29496 ft | 496 kts | 81° |
| 2026-05-08 19:22 | 35.12288 | -83.68039 | 29989 ft | 495 kts | 82° |
| 2026-05-08 19:22 | 35.12703 | -83.63868 | 30493 ft | 493 kts | 81° |
| 2026-05-08 19:23 | 35.13134 | -83.59691 | 30827 ft | 496 kts | 81° |
| 2026-05-08 19:23 | 35.13579 | -83.55506 | 31136 ft | 499 kts | 81° |
| 2026-05-08 19:23 | 35.14006 | -83.51330 | 31510 ft | 499 kts | 82° |
| 2026-05-08 19:23 | 35.14447 | -83.47092 | 31849 ft | 499 kts | 82° |
| 2026-05-08 19:24 | 35.14881 | -83.42884 | 32196 ft | 498 kts | 82° |
| 2026-05-08 19:24 | 35.15310 | -83.38688 | 32559 ft | 497 kts | 82° |
| 2026-05-08 19:24 | 35.15734 | -83.34551 | 32937 ft | 495 kts | 82° |
| 2026-05-08 19:24 | 35.16162 | -83.30377 | 33329 ft | 493 kts | 82° |
| 2026-05-08 19:25 | 35.16583 | -83.26220 | 33734 ft | 491 kts | 82° |
| 2026-05-08 19:25 | 35.17003 | -83.22074 | 34132 ft | 488 kts | 83° |
| 2026-05-08 19:25 | 35.17414 | -83.18012 | 34454 ft | 485 kts | 83° |
| 2026-05-08 19:25 | 35.17826 | -83.13936 | 34735 ft | 482 kts | 83° |
| 2026-05-08 19:26 | 35.18236 | -83.09834 | 34907 ft | 484 kts | 82° |
| 2026-05-08 19:26 | 35.19051 | -83.01615 | 35021 ft | 494 kts | 82° |
| 2026-05-08 19:27 | 35.19897 | -82.93179 | 35050 ft | 507 kts | 83° |
| 2026-05-08 19:27 | 35.20758 | -82.84458 | 35071 ft | 521 kts | 83° |
| 2026-05-08 19:28 | 35.21626 | -82.75576 | 35057 ft | 535 kts | 83° |
| 2026-05-08 19:28 | 35.22519 | -82.66409 | 35080 ft | 549 kts | 83° |
| 2026-05-08 19:29 | 35.23425 | -82.57057 | 35078 ft | 560 kts | 83° |
| 2026-05-08 19:29 | 35.24356 | -82.47492 | 35083 ft | 569 kts | 83° |
| 2026-05-08 19:30 | 35.25272 | -82.37820 | 35073 ft | 578 kts | 83° |
| 2026-05-08 19:30 | 35.26186 | -82.28055 | 35052 ft | 578 kts | 83° |
| 2026-05-08 19:31 | 35.27100 | -82.18259 | 35046 ft | 575 kts | 83° |
| 2026-05-08 19:31 | 35.27997 | -82.08569 | 35059 ft | 573 kts | 83° |
| 2026-05-08 19:32 | 35.28883 | -81.98908 | 35060 ft | 571 kts | 83° |
| 2026-05-08 19:32 | 35.29756 | -81.89282 | 35062 ft | 569 kts | 83° |
| 2026-05-08 19:33 | 35.30623 | -81.79626 | 35060 ft | 568 kts | 83° |
| 2026-05-08 19:33 | 35.31566 | -81.70062 | 35068 ft | 565 kts | 75° |
| 2026-05-08 19:33 | 35.32774 | -81.65516 | 35071 ft | 554 kts | 58° |
| 2026-05-08 19:34 | 35.34677 | -81.61559 | 35082 ft | 536 kts | 42° |
| 2026-05-08 19:34 | 35.37166 | -81.58236 | 35099 ft | 522 kts | 31° |
| 2026-05-08 19:34 | 35.39764 | -81.55068 | 35090 ft | 534 kts | 36° |
| 2026-05-08 19:34 | 35.42065 | -81.51433 | 35085 ft | 553 kts | 47° |
| 2026-05-08 19:35 | 35.44120 | -81.47384 | 35086 ft | 562 kts | 51° |
| 2026-05-08 19:35 | 35.48114 | -81.39082 | 35084 ft | 569 kts | 50° |
| 2026-05-08 19:36 | 35.51694 | -81.32224 | 35093 ft | 573 kts | 47° |
| 2026-05-08 19:36 | 35.56112 | -81.23973 | 35082 ft | 576 kts | 47° |
| 2026-05-08 19:37 | 35.60436 | -81.15813 | 35071 ft | 567 kts | 48° |
| 2026-05-08 19:37 | 35.64688 | -81.07692 | 35066 ft | 562 kts | 48° |
| 2026-05-08 19:38 | 35.68893 | -80.99607 | 35075 ft | 564 kts | 48° |
| 2026-05-08 19:38 | 35.73143 | -80.91426 | 35080 ft | 565 kts | 48° |
| 2026-05-08 19:39 | 35.77353 | -80.83294 | 35074 ft | 567 kts | 48° |
| 2026-05-08 19:39 | 35.81611 | -80.75057 | 35068 ft | 567 kts | 48° |
| 2026-05-08 19:40 | 35.85825 | -80.66883 | 35066 ft | 568 kts | 48° |
| 2026-05-08 19:40 | 35.90080 | -80.58607 | 35064 ft | 570 kts | 48° |
| 2026-05-08 19:41 | 35.94302 | -80.50367 | 35068 ft | 570 kts | 48° |
| 2026-05-08 19:41 | 35.98532 | -80.42103 | 35064 ft | 571 kts | 48° |
| 2026-05-08 19:42 | 36.02769 | -80.33798 | 35066 ft | 568 kts | 48° |
| 2026-05-08 19:42 | 36.06978 | -80.25544 | 35057 ft | 563 kts | 48° |
| 2026-05-08 19:43 | 36.11124 | -80.17391 | 35063 ft | 562 kts | 48° |
| 2026-05-08 19:43 | 36.15299 | -80.09145 | 35071 ft | 564 kts | 49° |
| 2026-05-08 19:44 | 36.19496 | -80.01000 | 35070 ft | 563 kts | 46° |
| 2026-05-08 19:44 | 36.23927 | -79.93064 | 35069 ft | 560 kts | 44° |
| 2026-05-08 19:45 | 36.28435 | -79.85129 | 35054 ft | 562 kts | 45° |
| 2026-05-08 19:45 | 36.32886 | -79.77197 | 35054 ft | 562 kts | 45° |
| 2026-05-08 19:46 | 36.37359 | -79.69225 | 35059 ft | 562 kts | 45° |
| 2026-05-08 19:46 | 36.44017 | -79.57334 | 35061 ft | 555 kts | 45° |
| 2026-05-08 19:47 | 36.48400 | -79.49484 | 35063 ft | 548 kts | 44° |
| 2026-05-08 19:47 | 36.52742 | -79.41692 | 35058 ft | 546 kts | 45° |
| 2026-05-08 19:48 | 36.57062 | -79.33917 | 35073 ft | 552 kts | 45° |
| 2026-05-08 19:48 | 36.61429 | -79.26029 | 35070 ft | 557 kts | 45° |
| 2026-05-08 19:49 | 36.65834 | -79.18052 | 35072 ft | 556 kts | 45° |
| 2026-05-08 19:49 | 36.70215 | -79.10105 | 35067 ft | 555 kts | 45° |
| 2026-05-08 19:50 | 36.74570 | -79.02195 | 35056 ft | 555 kts | 45° |
| 2026-05-08 19:50 | 36.78913 | -78.94276 | 35055 ft | 554 kts | 45° |
| 2026-05-08 19:51 | 36.83248 | -78.86361 | 35058 ft | 553 kts | 46° |
| 2026-05-08 19:51 | 36.87591 | -78.78409 | 35052 ft | 551 kts | 46° |
| 2026-05-08 19:52 | 36.91905 | -78.70493 | 35054 ft | 549 kts | 46° |
| 2026-05-08 19:52 | 36.96187 | -78.62623 | 35054 ft | 547 kts | 46° |
| 2026-05-08 19:53 | 37.00442 | -78.54784 | 35057 ft | 549 kts | 46° |
| 2026-05-08 19:53 | 37.04756 | -78.46812 | 35056 ft | 553 kts | 46° |
| 2026-05-08 19:54 | 37.09056 | -78.38836 | 35044 ft | 554 kts | 46° |
| 2026-05-08 19:54 | 37.13368 | -78.30830 | 35040 ft | 555 kts | 46° |
| 2026-05-08 19:55 | 37.17668 | -78.22834 | 35051 ft | 552 kts | 46° |
| 2026-05-08 19:55 | 37.21960 | -78.14835 | 35051 ft | 548 kts | 46° |
| 2026-05-08 19:56 | 37.26186 | -78.06936 | 35047 ft | 545 kts | 46° |
| 2026-05-08 19:56 | 37.30392 | -77.99056 | 35048 ft | 544 kts | 46° |
| 2026-05-08 19:57 | 37.34602 | -77.91153 | 35053 ft | 543 kts | 46° |
| 2026-05-08 19:57 | 37.38865 | -77.83298 | 35043 ft | 533 kts | 39° |
| 2026-05-08 19:58 | 37.41421 | -77.80165 | 35057 ft | 507 kts | 24° |
| 2026-05-08 19:58 | 37.44310 | -77.77753 | 35069 ft | 491 kts | 16° |
| 2026-05-08 19:58 | 37.50173 | -77.73453 | 35068 ft | 491 kts | 17° |
| 2026-05-08 19:59 | 37.55978 | -77.68842 | 35054 ft | 495 kts | 20° |
| 2026-05-08 19:59 | 37.61735 | -77.64048 | 35054 ft | 493 kts | 20° |
| 2026-05-08 20:00 | 37.67467 | -77.59347 | 35049 ft | 494 kts | 19° |
| 2026-05-08 20:00 | 37.73308 | -77.54642 | 35054 ft | 500 kts | 19° |
| 2026-05-08 20:01 | 37.79201 | -77.49936 | 35053 ft | 503 kts | 20° |
| 2026-05-08 20:01 | 37.85104 | -77.45166 | 35050 ft | 502 kts | 20° |
| 2026-05-08 20:02 | 37.90964 | -77.40391 | 35042 ft | 502 kts | 20° |
| 2026-05-08 20:02 | 37.96847 | -77.35609 | 35034 ft | 501 kts | 20° |
| 2026-05-08 20:03 | 38.02676 | -77.30821 | 35013 ft | 502 kts | 20° |
| 2026-05-08 20:03 | 38.08571 | -77.25986 | 35010 ft | 501 kts | 20° |
| 2026-05-08 20:04 | 38.14406 | -77.21209 | 35003 ft | 502 kts | 20° |
| 2026-05-08 20:04 | 38.20279 | -77.16383 | 35002 ft | 502 kts | 20° |
| 2026-05-08 20:05 | 38.26151 | -77.11566 | 34746 ft | 499 kts | 20° |
| 2026-05-08 20:05 | 38.29062 | -77.09147 | 34495 ft | 498 kts | 21° |
| 2026-05-08 20:05 | 38.31869 | -77.06603 | 34245 ft | 502 kts | 25° |
| 2026-05-08 20:06 | 38.34637 | -77.03876 | 33991 ft | 503 kts | 26° |
| 2026-05-08 20:06 | 38.37410 | -77.01107 | 33705 ft | 501 kts | 26° |
| 2026-05-08 20:06 | 38.40126 | -76.98407 | 33421 ft | 500 kts | 25° |
| 2026-05-08 20:06 | 38.42898 | -76.95710 | 33131 ft | 500 kts | 25° |
| 2026-05-08 20:07 | 38.45359 | -76.93333 | 32862 ft | 501 kts | 25° |
| 2026-05-08 20:07 | 38.48160 | -76.90624 | 32532 ft | 502 kts | 25° |
| 2026-05-08 20:07 | 38.50908 | -76.87961 | 32161 ft | 499 kts | 25° |
| 2026-05-08 20:08 | 38.53658 | -76.85301 | 31793 ft | 496 kts | 25° |
| 2026-05-08 20:08 | 38.56420 | -76.82622 | 31424 ft | 493 kts | 25° |
| 2026-05-08 20:08 | 38.59152 | -76.79975 | 31061 ft | 490 kts | 25° |
| 2026-05-08 20:08 | 38.61867 | -76.77337 | 30705 ft | 489 kts | 25° |
| 2026-05-08 20:09 | 38.64555 | -76.74723 | 30347 ft | 487 kts | 25° |
| 2026-05-08 20:09 | 38.67193 | -76.72159 | 30002 ft | 485 kts | 25° |
| 2026-05-08 20:09 | 38.69951 | -76.69475 | 29568 ft | 484 kts | 25° |
| 2026-05-08 20:09 | 38.72597 | -76.66897 | 29171 ft | 483 kts | 25° |
| 2026-05-08 20:10 | 38.75279 | -76.64291 | 28802 ft | 479 kts | 25° |
| 2026-05-08 20:10 | 38.77928 | -76.61714 | 28421 ft | 476 kts | 26° |
| 2026-05-08 20:10 | 38.80539 | -76.59154 | 28064 ft | 476 kts | 26° |
| 2026-05-08 20:10 | 38.83178 | -76.56566 | 27684 ft | 474 kts | 26° |
| 2026-05-08 20:11 | 38.85791 | -76.54010 | 27325 ft | 470 kts | 26° |
| 2026-05-08 20:11 | 38.88366 | -76.51489 | 26982 ft | 468 kts | 26° |
| 2026-05-08 20:11 | 38.90948 | -76.48955 | 26628 ft | 465 kts | 26° |
| 2026-05-08 20:11 | 38.93524 | -76.46425 | 26278 ft | 463 kts | 26° |
| 2026-05-08 20:12 | 38.96063 | -76.43932 | 25938 ft | 461 kts | 26° |
| 2026-05-08 20:12 | 38.98613 | -76.41426 | 25582 ft | 461 kts | 27° |
| 2026-05-08 20:12 | 39.01169 | -76.38911 | 25252 ft | 460 kts | 27° |
| 2026-05-08 20:12 | 39.03700 | -76.36384 | 24935 ft | 461 kts | 28° |
| 2026-05-08 20:13 | 39.06121 | -76.33724 | 24620 ft | 465 kts | 32° |
| 2026-05-08 20:13 | 39.08518 | -76.30879 | 24295 ft | 467 kts | 33° |
| 2026-05-08 20:13 | 39.10873 | -76.28048 | 23979 ft | 466 kts | 33° |
| 2026-05-08 20:13 | 39.13241 | -76.25207 | 23657 ft | 458 kts | 33° |
| 2026-05-08 20:14 | 39.15566 | -76.22436 | 23289 ft | 453 kts | 33° |
| 2026-05-08 20:14 | 39.17873 | -76.19734 | 22914 ft | 451 kts | 33° |
| 2026-05-08 20:14 | 39.20216 | -76.16989 | 22535 ft | 450 kts | 33° |
| 2026-05-08 20:14 | 39.22532 | -76.14283 | 22157 ft | 451 kts | 33° |
| 2026-05-08 20:15 | 39.24830 | -76.11587 | 21795 ft | 448 kts | 33° |
| 2026-05-08 20:15 | 39.27119 | -76.08899 | 21416 ft | 440 kts | 33° |
| 2026-05-08 20:15 | 39.29386 | -76.06235 | 21069 ft | 436 kts | 33° |
| 2026-05-08 20:15 | 39.31574 | -76.03660 | 20719 ft | 427 kts | 33° |
| 2026-05-08 20:16 | 39.33767 | -76.01086 | 20365 ft | 425 kts | 33° |
| 2026-05-08 20:16 | 39.35949 | -75.98515 | 20014 ft | 421 kts | 33° |
| 2026-05-08 20:16 | 39.38104 | -75.95968 | 19679 ft | 416 kts | 34° |
| 2026-05-08 20:16 | 39.40220 | -75.93469 | 19336 ft | 414 kts | 34° |
| 2026-05-08 20:17 | 39.42343 | -75.90961 | 19016 ft | 411 kts | 34° |
| 2026-05-08 20:17 | 39.44456 | -75.88465 | 18685 ft | 408 kts | 34° |
| 2026-05-08 20:17 | 39.45845 | -75.86822 | 18467 ft | 406 kts | 34° |
| 2026-05-08 20:17 | 39.48614 | -75.83543 | 17998 ft | 404 kts | 34° |
| 2026-05-08 20:18 | 39.49994 | -75.81906 | 17774 ft | 403 kts | 34° |
| 2026-05-08 20:18 | 39.52719 | -75.78667 | 17429 ft | 399 kts | 34° |
| 2026-05-08 20:18 | 39.54758 | -75.76246 | 17169 ft | 396 kts | 34° |
| 2026-05-08 20:18 | 39.56111 | -75.74641 | 16978 ft | 395 kts | 34° |
| 2026-05-08 20:19 | 39.58131 | -75.72239 | 16696 ft | 393 kts | 34° |
| 2026-05-08 20:19 | 39.60142 | -75.69845 | 16420 ft | 391 kts | 34° |
| 2026-05-08 20:19 | 39.62144 | -75.67462 | 16152 ft | 388 kts | 34° |
| 2026-05-08 20:19 | 39.64130 | -75.65093 | 15876 ft | 386 kts | 34° |
| 2026-05-08 20:20 | 39.66082 | -75.62766 | 15616 ft | 383 kts | 34° |
| 2026-05-08 20:20 | 39.68025 | -75.60446 | 15366 ft | 375 kts | 33° |
| 2026-05-08 20:20 | 39.69922 | -75.58164 | 15117 ft | 367 kts | 33° |
| 2026-05-08 20:20 | 39.71788 | -75.55921 | 14870 ft | 361 kts | 33° |
| 2026-05-08 20:21 | 39.73620 | -75.53718 | 14621 ft | 357 kts | 33° |
| 2026-05-08 20:21 | 39.75351 | -75.51634 | 14399 ft | 355 kts | 33° |
| 2026-05-08 20:21 | 39.76832 | -75.49843 | 14196 ft | 354 kts | 33° |
| 2026-05-08 20:21 | 39.78636 | -75.47667 | 13952 ft | 352 kts | 33° |
| 2026-05-08 20:22 | 39.80426 | -75.45503 | 13718 ft | 350 kts | 33° |
| 2026-05-08 20:22 | 39.82207 | -75.43349 | 13449 ft | 349 kts | 33° |
| 2026-05-08 20:22 | 39.83966 | -75.41222 | 13190 ft | 348 kts | 34° |
| 2026-05-08 20:22 | 39.85749 | -75.39074 | 12911 ft | 347 kts | 33° |
| 2026-05-08 20:23 | 39.87537 | -75.36964 | 12647 ft | 345 kts | 33° |
| 2026-05-08 20:23 | 39.89313 | -75.34944 | 12400 ft | 337 kts | 33° |
| 2026-05-08 20:23 | 39.91059 | -75.32941 | 12130 ft | 328 kts | 33° |
| 2026-05-08 20:23 | 39.92729 | -75.30944 | 11870 ft | 322 kts | 35° |
| 2026-05-08 20:24 | 39.94349 | -75.28967 | 11600 ft | 315 kts | 35° |
| 2026-05-08 20:24 | 39.95929 | -75.27041 | 11335 ft | 313 kts | 36° |
| 2026-05-08 20:24 | 39.97513 | -75.25116 | 11081 ft | 308 kts | 36° |
| 2026-05-08 20:24 | 39.99074 | -75.23215 | 10830 ft | 307 kts | 36° |
| 2026-05-08 20:25 | 40.00623 | -75.21321 | 10577 ft | 308 kts | 37° |
| 2026-05-08 20:25 | 40.02186 | -75.19407 | 10327 ft | 308 kts | 37° |
| 2026-05-08 20:25 | 40.03754 | -75.17481 | 10087 ft | 307 kts | 37° |
| 2026-05-08 20:25 | 40.05296 | -75.15589 | 9852 ft | 306 kts | 38° |
| 2026-05-08 20:26 | 40.06848 | -75.13680 | 9590 ft | 305 kts | 38° |
| 2026-05-08 20:26 | 40.08379 | -75.11800 | 9328 ft | 304 kts | 38° |
| 2026-05-08 20:26 | 40.09921 | -75.09904 | 9063 ft | 303 kts | 38° |
| 2026-05-08 20:26 | 40.11462 | -75.08015 | 8799 ft | 302 kts | 38° |
| 2026-05-08 20:27 | 40.12994 | -75.06130 | 8544 ft | 308 kts | 38° |
| 2026-05-08 20:27 | 40.14547 | -75.04216 | 8290 ft | 302 kts | 38° |
| 2026-05-08 20:27 | 40.16064 | -75.02344 | 8135 ft | 298 kts | 38° |
| 2026-05-08 20:27 | 40.17553 | -75.00513 | 8067 ft | 295 kts | 38° |
| 2026-05-08 20:28 | 40.19051 | -74.98666 | 8037 ft | 295 kts | 38° |
| 2026-05-08 20:28 | 40.20553 | -74.96818 | 8024 ft | 296 kts | 38° |
| 2026-05-08 20:28 | 40.22052 | -74.94964 | 8020 ft | 300 kts | 38° |
| 2026-05-08 20:28 | 40.23571 | -74.93089 | 8022 ft | 300 kts | 38° |
| 2026-05-08 20:29 | 40.25097 | -74.91214 | 8014 ft | 301 kts | 38° |
| 2026-05-08 20:29 | 40.26581 | -74.89259 | 8006 ft | 302 kts | 41° |
| 2026-05-08 20:29 | 40.28009 | -74.87231 | 8009 ft | 302 kts | 43° |
| 2026-05-08 20:29 | 40.29408 | -74.85214 | 8013 ft | 302 kts | 43° |
| 2026-05-08 20:30 | 40.30817 | -74.83165 | 7985 ft | 302 kts | 43° |
| 2026-05-08 20:30 | 40.32238 | -74.81105 | 7707 ft | 305 kts | 43° |
| 2026-05-08 20:30 | 40.33664 | -74.79078 | 7416 ft | 302 kts | 43° |
| 2026-05-08 20:30 | 40.35087 | -74.77061 | 7112 ft | 298 kts | 43° |
| 2026-05-08 20:31 | 40.36489 | -74.75082 | 6825 ft | 298 kts | 43° |
| 2026-05-08 20:31 | 40.37913 | -74.73080 | 6532 ft | 298 kts | 43° |
| 2026-05-08 20:31 | 40.39333 | -74.71083 | 6256 ft | 297 kts | 43° |
| 2026-05-08 20:31 | 40.40716 | -74.69130 | 6116 ft | 291 kts | 43° |
| 2026-05-08 20:32 | 40.42129 | -74.67252 | 6042 ft | 288 kts | 33° |
| 2026-05-08 20:32 | 40.43921 | -74.66227 | 6016 ft | 278 kts | 7° |
| 2026-05-08 20:32 | 40.45812 | -74.65749 | 6016 ft | 275 kts | 3° |
| 2026-05-08 20:32 | 40.47681 | -74.65372 | 6015 ft | 274 kts | 2° |
| 2026-05-08 20:33 | 40.49573 | -74.64994 | 6018 ft | 274 kts | 3° |
| 2026-05-08 20:33 | 40.51448 | -74.64570 | 6026 ft | 275 kts | 4° |
| 2026-05-08 20:33 | 40.53331 | -74.64088 | 6026 ft | 275 kts | 5° |
| 2026-05-08 20:33 | 40.55188 | -74.63595 | 6017 ft | 275 kts | 5° |
| 2026-05-08 20:34 | 40.57074 | -74.63087 | 6019 ft | 275 kts | 5° |
| 2026-05-08 20:34 | 40.58976 | -74.62584 | 5786 ft | 279 kts | 6° |
| 2026-05-08 20:34 | 40.62757 | -74.61577 | 5234 ft | 278 kts | 7° |
| 2026-05-08 20:35 | 40.64643 | -74.61054 | 5105 ft | 275 kts | 7° |
| 2026-05-08 20:35 | 40.66518 | -74.60542 | 5053 ft | 275 kts | 7° |
| 2026-05-08 20:35 | 40.68395 | -74.60036 | 5025 ft | 273 kts | 6° |
| 2026-05-08 20:35 | 40.70257 | -74.59535 | 5012 ft | 271 kts | 6° |
| 2026-05-08 20:36 | 40.72080 | -74.59044 | 5028 ft | 273 kts | 6° |
| 2026-05-08 20:36 | 40.73940 | -74.58542 | 5017 ft | 270 kts | 6° |
| 2026-05-08 20:36 | 40.75775 | -74.58040 | 5050 ft | 275 kts | 6° |
| 2026-05-08 20:36 | 40.77676 | -74.57528 | 5049 ft | 275 kts | 6° |
| 2026-05-08 20:37 | 40.79426 | -74.56794 | 5034 ft | 270 kts | 27° |
| 2026-05-08 20:37 | 40.80749 | -74.54957 | 5047 ft | 279 kts | 53° |
| 2026-05-08 20:37 | 40.81781 | -74.52805 | 5058 ft | 275 kts | 55° |
| 2026-05-08 20:37 | 40.82747 | -74.50698 | 5050 ft | 261 kts | 57° |
| 2026-05-08 20:38 | 40.83664 | -74.48632 | 5026 ft | 259 kts | 57° |
| 2026-05-08 20:38 | 40.84554 | -74.46597 | 4984 ft | 258 kts | 57° |
| 2026-05-08 20:38 | 40.85445 | -74.44543 | 4970 ft | 256 kts | 57° |
| 2026-05-08 20:38 | 40.86324 | -74.42510 | 5006 ft | 253 kts | 57° |
| 2026-05-08 20:39 | 40.87186 | -74.40498 | 5015 ft | 251 kts | 57° |
| 2026-05-08 20:39 | 40.88030 | -74.38525 | 5019 ft | 251 kts | 58° |
| 2026-05-08 20:39 | 40.88888 | -74.36514 | 5024 ft | 249 kts | 58° |
| 2026-05-08 20:39 | 40.89747 | -74.34497 | 5039 ft | 255 kts | 58° |
| 2026-05-08 20:40 | 40.90636 | -74.32438 | 5042 ft | 261 kts | 57° |
| 2026-05-08 20:40 | 40.91540 | -74.30338 | 5048 ft | 261 kts | 57° |
| 2026-05-08 20:40 | 40.92394 | -74.28319 | 5003 ft | 250 kts | 61° |
| 2026-05-08 20:40 | 40.92720 | -74.26083 | 4728 ft | 250 kts | 98° |
| 2026-05-08 20:41 | 40.92341 | -74.23845 | 4489 ft | 249 kts | 105° |
| 2026-05-08 20:41 | 40.91905 | -74.21615 | 4255 ft | 249 kts | 106° |
| 2026-05-08 20:41 | 40.91460 | -74.19449 | 4133 ft | 242 kts | 107° |
| 2026-05-08 20:41 | 40.91097 | -74.17756 | 4071 ft | 228 kts | 107° |
| 2026-05-08 20:42 | 40.90689 | -74.15841 | 4077 ft | 208 kts | 107° |
| 2026-05-08 20:42 | 40.90298 | -74.13990 | 3872 ft | 218 kts | 107° |
| 2026-05-08 20:42 | 40.89875 | -74.12047 | 3612 ft | 216 kts | 107° |
| 2026-05-08 20:42 | 40.89463 | -74.10150 | 3330 ft | 211 kts | 108° |
| 2026-05-08 20:43 | 40.88748 | -74.08585 | 3128 ft | 194 kts | 145° |
| 2026-05-08 20:43 | 40.87711 | -74.07427 | 3074 ft | 199 kts | 146° |
| 2026-05-08 20:43 | 40.86646 | -74.06296 | 3048 ft | 187 kts | 153° |
| 2026-05-08 20:43 | 40.85793 | -74.05889 | 2997 ft | 166 kts | 186° |
| 2026-05-08 20:44 | 40.84790 | -74.06297 | 3000 ft | 143 kts | 217° |
| 2026-05-08 20:44 | 40.83938 | -74.06924 | 2957 ft | 138 kts | 218° |
| 2026-05-08 20:44 | 40.83082 | -74.07576 | 2801 ft | 145 kts | 217° |
| 2026-05-08 20:44 | 40.82185 | -74.08224 | 2625 ft | 152 kts | 215° |
| 2026-05-08 20:45 | 40.81220 | -74.08871 | 2458 ft | 158 kts | 211° |
| 2026-05-08 20:45 | 40.80534 | -74.09246 | 2330 ft | 164 kts | 208° |
| 2026-05-08 20:45 | 40.79163 | -74.09970 | 2098 ft | 152 kts | 212° |
| 2026-05-08 20:45 | 40.78279 | -74.10529 | 1901 ft | 131 kts | 215° |
| 2026-05-08 20:46 | 40.77474 | -74.11070 | 1643 ft | 128 kts | 216° |
| 2026-05-08 20:46 | 40.76692 | -74.11641 | 1410 ft | 130 kts | 213° |
| 2026-05-08 20:46 | 40.75886 | -74.12177 | 1212 ft | 129 kts | 212° |
| 2026-05-08 20:46 | 40.75090 | -74.12675 | 994 ft | 122 kts | 213° |
| 2026-05-08 20:47 | 40.74326 | -74.13175 | 798 ft | 121 kts | 213° |
| 2026-05-08 20:47 | 40.73602 | -74.13667 | 684 ft | 118 kts | 213° |
| 2026-05-08 20:47 | 40.72869 | -74.14145 | 554 ft | 119 kts | 214° |
| 2026-05-08 20:47 | 40.72117 | -74.14639 | 372 ft | 121 kts | 214° |
| 2026-05-08 20:48 | 40.71368 | -74.15123 | 275 ft | 117 kts | 213° |
| 2026-05-08 20:48 | 40.70651 | -74.15589 | 160 ft | 114 kts | 213° |
| 2026-05-08 20:48 | 40.69926 | -74.16049 | 45 ft | 112 kts | 207° |
| 2026-05-08 20:48 | 40.69311 | -74.16437 | 23 ft | 77 kts | 206° |
| 2026-05-08 20:49 | 40.68982 | -74.16647 | 18 ft | 33 kts | 207° |
| 2026-05-08 20:49 | 40.68822 | -74.16772 | 17 ft | 21 kts | 217° |
| 2026-05-08 20:49 | 40.68737 | -74.16885 | 17 ft | 11 kts | 232° |
| 2026-05-08 20:49 | 40.68701 | -74.16952 | 21 ft | 8 kts | 235° |
| 2026-05-08 20:50 | 40.68670 | -74.17012 | 21 ft | 8 kts | 235° |
| 2026-05-08 20:50 | 40.68644 | -74.17061 | 20 ft | 4 kts | 235° |
| 2026-05-08 20:50 | 40.68630 | -74.17088 | 20 ft | 2 kts | 234° |
| 2026-05-08 20:50 | 40.68625 | -74.17098 | 19 ft | 1 kts | 241° |
| 2026-05-08 20:51 | 40.68623 | -74.17105 | 19 ft | 0 kts | 254° |
| 2026-05-08 20:51 | 40.68622 | -74.17109 | 19 ft | 0 kts | 260° |
| 2026-05-08 20:57 | 40.68622 | -74.17123 | 19 ft | 5 kts | 276° |
| 2026-05-08 20:57 | 40.68640 | -74.17190 | 21 ft | 10 kts | 296° |
| 2026-05-08 20:57 | 40.68672 | -74.17276 | 21 ft | 10 kts | 296° |
| 2026-05-08 20:58 | 40.68700 | -74.17352 | 22 ft | 10 kts | 295° |
| 2026-05-08 20:58 | 40.68736 | -74.17434 | 35 ft | 9 kts | 325° |
| 2026-05-08 20:58 | 40.68806 | -74.17420 | 20 ft | 13 kts | 25° |
| 2026-05-08 20:58 | 40.68897 | -74.17363 | 17 ft | 15 kts | 25° |
| 2026-05-08 20:59 | 40.68991 | -74.17303 | 18 ft | 16 kts | 26° |
| 2026-05-08 20:59 | 40.69099 | -74.17234 | 15 ft | 17 kts | 26° |
| 2026-05-08 20:59 | 40.69197 | -74.17171 | 16 ft | 15 kts | 26° |
| 2026-05-08 20:59 | 40.69289 | -74.17113 | 16 ft | 15 kts | 25° |
| 2026-05-08 21:00 | 40.69372 | -74.17077 | 16 ft | 13 kts | 11° |
| 2026-05-08 21:00 | 40.69456 | -74.17070 | 19 ft | 12 kts | 357° |
| 2026-05-08 21:00 | 40.69540 | -74.17087 | 19 ft | 12 kts | 348° |
| 2026-05-08 21:00 | 40.69618 | -74.17118 | 19 ft | 11 kts | 339° |
| 2026-05-08 21:01 | 40.69680 | -74.17154 | 20 ft | 10 kts | 332° |
| 2026-05-08 21:01 | 40.69724 | -74.17193 | 19 ft | 6 kts | 313° |
| 2026-05-08 21:01 | 40.69729 | -74.17241 | 19 ft | 6 kts | 249° |
| 2026-05-08 21:01 | 40.69718 | -74.17284 | 19 ft | 3 kts | 254° |
| 2026-05-08 21:02 | 40.69709 | -74.17316 | 21 ft | 4 kts | 242° |
| 2026-05-08 21:02 | 40.69693 | -74.17340 | 20 ft | 0 kts | 221° |
| 2026-05-08 21:03 | 40.69678 | -74.17359 | 20 ft | 5 kts | 232° |
| 2026-05-08 21:03 | 40.69670 | -74.17388 | 21 ft | 4 kts | 270° |
| 2026-05-08 21:03 | 40.69679 | -74.17417 | 19 ft | 4 kts | 308° |
| 2026-05-08 21:04 | 40.69696 | -74.17446 | 19 ft | 4 kts | 309° |
| 2026-05-08 21:04 | 40.69708 | -74.17464 | 19 ft | 2 kts | 310° |
| 2026-05-08 21:04 | 40.69713 | -74.17472 | 20 ft | 0 kts | 310° |
| 2026-05-08 21:08 | 40.69713 | -74.17473 | 20 ft | 0 kts | 310° |